METAR Data
IDs: Format: Raw Decoded Include TAF

Data at: 0258 UTC 25 Feb 2021

EFSI 250250Z AUTO 22004KT 170V290 CAVOK 02/01 Q1006